createdAt,value
2023-03-16T00:02:06.605Z,101114.81
2023-03-16T00:05:09.780Z,101114.88
2023-03-16T00:08:11.432Z,101122.50
2023-03-16T00:11:13.164Z,101124.22
2023-03-16T00:14:14.736Z,101124.22
2023-03-16T00:17:20.252Z,101125.13
2023-03-16T00:20:23.356Z,101120.94
2023-03-16T00:23:29.457Z,101130.22
2023-03-16T00:26:31.999Z,101127.72
2023-03-16T00:29:34.843Z,101126.78
2023-03-16T00:32:38.519Z,101127.69
2023-03-16T00:35:40.569Z,101122.59
2023-03-16T00:38:45.364Z,101121.72
2023-03-16T00:41:47.304Z,101118.25
2023-03-16T00:44:57.402Z,101113.97
2023-03-16T00:48:00.345Z,101118.94
2023-03-16T00:51:04.313Z,101107.94
2023-03-16T00:54:06.077Z,101102.88
2023-03-16T00:57:07.704Z,101112.22
2023-03-16T01:00:17.327Z,101108.84
2023-03-16T01:03:21.206Z,101108.00
2023-03-16T01:06:23.104Z,101102.19
2023-03-16T01:09:24.732Z,101105.59
2023-03-16T01:12:27.903Z,101102.28
2023-03-16T01:15:30.950Z,101104.06
2023-03-16T01:18:36.127Z,101103.25
2023-03-16T01:21:38.411Z,101094.91
2023-03-16T01:24:40.721Z,101093.28
2023-03-16T01:27:43.196Z,101096.72
2023-03-16T01:30:45.227Z,101084.13
2023-03-16T01:33:47.113Z,101087.50
2023-03-16T01:36:54.282Z,101092.50
2023-03-16T01:40:06.305Z,101089.97
2023-03-16T01:43:11.426Z,101086.47
2023-03-16T01:46:20.233Z,101093.25
2023-03-16T01:49:34.162Z,101090.75
2023-03-16T01:52:38.120Z,101093.34
2023-03-16T01:55:41.888Z,101092.50
2023-03-16T01:58:44.667Z,101088.31
2023-03-16T02:01:50.255Z,101089.09
2023-03-16T02:05:09.853Z,101089.97
2023-03-16T02:08:12.558Z,101079.84
2023-03-16T02:11:22.616Z,101081.63
2023-03-16T02:14:31.764Z,101076.63
2023-03-16T02:17:36.599Z,101078.34
2023-03-16T02:20:50.664Z,101080.13
2023-03-16T02:23:53.540Z,101078.41
2023-03-16T02:27:04.626Z,101064.16
2023-03-16T02:30:16.023Z,101070.06
2023-03-16T02:33:32.748Z,101065.84
2023-03-16T02:36:36.422Z,101060.72
2023-03-16T02:39:38.335Z,101058.25
2023-03-16T02:42:41.783Z,101058.25
2023-03-16T02:45:49.869Z,101055.56
2023-03-16T02:49:25.010Z,101045.44
2023-03-16T02:52:26.780Z,101036.25
2023-03-16T02:55:28.471Z,101041.31
2023-03-16T02:58:32.060Z,101037.09
2023-03-16T03:01:36.677Z,101032.97
2023-03-16T03:04:38.699Z,101038.03
2023-03-16T03:07:42.219Z,101038.03
2023-03-16T03:10:44.034Z,101032.97
2023-03-16T03:13:47.476Z,101034.53
2023-03-16T03:16:54.055Z,101026.19
2023-03-16T03:20:02.416Z,101029.56
2023-03-16T03:23:04.183Z,101027.88
2023-03-16T03:26:07.262Z,101021.03
2023-03-16T03:29:09.466Z,101023.63
2023-03-16T03:32:11.442Z,101025.22
2023-03-16T03:35:14.854Z,101031.22
2023-03-16T03:38:17.290Z,101034.75
2023-03-16T03:41:22.710Z,101034.69
2023-03-16T03:44:27.221Z,101035.56
2023-03-16T03:47:30.770Z,101033.63
2023-03-16T03:50:33.387Z,101032.91
2023-03-16T03:53:54.735Z,101027.00
2023-03-16T03:57:13.468Z,101025.38
2023-03-16T04:00:15.945Z,101030.47
2023-03-16T04:03:19.548Z,101031.25
2023-03-16T04:06:23.959Z,101023.56
2023-03-16T04:09:26.464Z,101033.00
2023-03-16T04:12:28.332Z,101036.31
2023-03-16T04:15:34.837Z,101036.34
2023-03-16T04:18:51.118Z,101024.59
2023-03-16T04:21:53.098Z,101029.69
2023-03-16T04:24:55.178Z,101020.44
2023-03-16T04:27:58.788Z,101017.88
2023-03-16T04:31:09.397Z,101011.03
2023-03-16T04:34:15.385Z,101015.25
2023-03-16T04:37:17.067Z,101019.47
2023-03-16T04:40:19.598Z,101017.78
2023-03-16T04:43:28.028Z,101018.66
2023-03-16T04:46:36.244Z,101017.75
2023-03-16T04:49:42.065Z,101021.19
2023-03-16T04:52:44.004Z,101010.31
2023-03-16T04:55:48.200Z,101008.53
2023-03-16T04:58:51.164Z,101015.34
2023-03-16T05:01:55.086Z,101013.66
2023-03-16T05:04:59.639Z,101017.78
2023-03-16T05:08:01.601Z,101024.44
2023-03-16T05:11:05.646Z,101019.94
2023-03-16T05:14:12.674Z,101022.44
2023-03-16T05:17:32.338Z,101013.28
2023-03-16T05:20:34.057Z,101025.16
2023-03-16T05:23:37.533Z,101021.69
2023-03-16T05:26:39.327Z,101015.47
2023-03-16T05:29:46.835Z,101015.16
2023-03-16T05:32:48.794Z,101009.91
2023-03-16T05:35:51.615Z,101012.25
2023-03-16T05:38:54.063Z,100997.94
2023-03-16T05:42:06.026Z,100993.59
2023-03-16T05:45:24.058Z,100991.09
2023-03-16T05:48:36.699Z,100987.53
2023-03-16T05:51:39.753Z,100997.59
2023-03-16T05:54:42.963Z,100984.72
2023-03-16T05:57:45.790Z,100989.34
2023-03-16T06:00:48.180Z,100977.88
2023-03-16T06:03:57.328Z,100977.56
2023-03-16T06:07:02.646Z,100962.97
2023-03-16T06:10:09.257Z,100973.69
2023-03-16T06:13:11.722Z,100982.84
2023-03-16T06:16:14.628Z,100975.94
2023-03-16T06:19:16.888Z,100973.47
2023-03-16T06:22:20.755Z,100973.38
2023-03-16T06:25:24.237Z,100967.25
2023-03-16T06:28:27.412Z,100967.97
2023-03-16T06:31:31.070Z,100971.94
2023-03-16T06:34:35.849Z,100968.38
2023-03-16T06:37:38.976Z,100974.97
2023-03-16T06:40:55.231Z,100979.00
2023-03-16T06:43:58.449Z,100979.97
2023-03-16T06:47:00.385Z,100986.47
2023-03-16T06:50:02.394Z,100987.22
2023-03-16T06:53:05.407Z,100992.22
2023-03-16T06:56:09.177Z,100987.03
2023-03-16T06:59:15.320Z,100990.03
2023-03-16T07:02:17.069Z,100993.88
2023-03-16T07:05:19.065Z,100988.38
2023-03-16T07:08:22.755Z,100988.84
2023-03-16T07:11:24.761Z,100991.16
2023-03-16T07:14:26.853Z,101001.03
2023-03-16T07:17:32.618Z,100998.09
2023-03-16T07:20:35.619Z,101009.72
2023-03-16T07:23:40.754Z,101015.38
2023-03-16T07:26:44.194Z,101014.19
2023-03-16T07:29:52.064Z,101021.75
2023-03-16T07:32:54.038Z,101021.75
2023-03-16T07:35:57.982Z,101031.56
2023-03-16T07:39:00.029Z,101037.63
2023-03-16T07:42:02.119Z,101038.31
2023-03-16T07:45:14.450Z,101039.13
2023-03-16T07:48:19.542Z,101043.59
2023-03-16T07:51:31.334Z,101041.72
2023-03-16T07:54:33.636Z,101041.63
2023-03-16T07:57:35.764Z,101041.66
2023-03-16T08:00:39.040Z,101034.06
2023-03-16T08:03:41.111Z,101036.56
2023-03-16T08:06:43.114Z,101045.84
2023-03-16T08:09:45.243Z,101043.13
2023-03-16T08:12:52.284Z,101043.81
2023-03-16T08:16:03.396Z,101037.75
2023-03-16T08:19:11.862Z,101041.16
2023-03-16T08:22:14.264Z,101048.53
2023-03-16T08:25:20.391Z,101048.84
2023-03-16T08:28:31.853Z,101050.75
2023-03-16T08:31:36.601Z,101053.47
2023-03-16T08:34:47.418Z,101050.06
2023-03-16T08:37:49.573Z,101049.25
2023-03-16T08:40:52.154Z,101045.22
2023-03-16T08:43:56.623Z,101038.63
2023-03-16T08:46:58.860Z,101039.38
2023-03-16T08:50:02.101Z,101038.47
2023-03-16T08:53:03.901Z,101040.41
2023-03-16T08:56:12.285Z,101033.81
2023-03-16T08:59:27.388Z,101033.00
2023-03-16T09:02:31.451Z,101036.38
2023-03-16T09:05:34.238Z,101020.50
2023-03-16T09:08:39.201Z,101023.19
2023-03-16T09:11:41.933Z,101021.69
2023-03-16T09:14:43.582Z,101014.28
2023-03-16T09:17:45.961Z,101012.59
2023-03-16T09:20:53.251Z,101007.53
2023-03-16T09:23:54.980Z,101012.84
2023-03-16T09:26:56.702Z,101008.50
2023-03-16T09:30:00.750Z,100999.28
2023-03-16T09:33:04.357Z,100996.00
2023-03-16T09:36:06.411Z,100992.66
2023-03-16T09:39:08.855Z,100996.25
2023-03-16T09:42:46.502Z,100992.25
2023-03-16T09:46:27.205Z,100986.06
2023-03-16T09:49:36.318Z,100989.13
2023-03-16T09:52:46.807Z,100982.50
2023-03-16T09:55:55.209Z,100978.13
2023-03-16T09:58:58.997Z,100991.53
2023-03-16T10:02:26.469Z,100994.09
2023-03-16T10:05:28.746Z,100991.44
2023-03-16T10:08:43.085Z,100998.66
2023-03-16T10:11:54.160Z,101003.19
2023-03-16T10:15:05.890Z,101001.34
2023-03-16T10:18:18.241Z,101003.88
2023-03-16T10:21:21.424Z,100994.28
2023-03-16T10:24:44.401Z,100988.06
2023-03-16T10:27:47.153Z,100982.16
2023-03-16T10:30:51.594Z,100987.53
2023-03-16T10:34:02.906Z,100986.66
2023-03-16T10:37:06.021Z,100993.69
2023-03-16T10:40:09.382Z,100973.91
2023-03-16T10:43:14.411Z,100977.72
2023-03-16T10:46:16.822Z,100965.72
2023-03-16T10:49:36.188Z,100966.91
2023-03-16T10:52:47.040Z,100959.28
2023-03-16T10:55:50.329Z,100958.84
2023-03-16T10:58:52.576Z,100956.34
2023-03-16T11:01:54.600Z,100945.13
2023-03-16T11:04:57.518Z,100945.31
2023-03-16T11:08:01.557Z,100952.22
2023-03-16T11:11:18.761Z,100947.78
2023-03-16T11:14:26.113Z,100948.38
2023-03-16T11:17:41.783Z,100947.56
2023-03-16T11:20:44.007Z,100950.44
2023-03-16T11:23:56.711Z,100952.94
2023-03-16T11:27:03.232Z,100943.66
2023-03-16T11:30:09.828Z,100948.97
2023-03-16T11:33:14.068Z,100942.97
2023-03-16T11:36:41.811Z,100950.34
2023-03-16T11:40:17.310Z,100938.75
2023-03-16T11:43:46.830Z,100917.50
2023-03-16T11:47:11.893Z,100910.69
2023-03-16T11:50:24.663Z,100902.19
2023-03-16T11:53:54.620Z,100903.25
2023-03-16T11:57:02.224Z,100907.16
2023-03-16T12:00:35.241Z,100897.34
2023-03-16T12:04:20.585Z,100891.09
2023-03-16T12:07:47.985Z,100891.59
2023-03-16T12:11:04.581Z,100886.03
2023-03-16T12:14:19.360Z,100884.38
2023-03-16T12:17:27.783Z,100873.94
2023-03-16T12:20:38.140Z,100855.66
2023-03-16T12:23:49.487Z,100860.59
2023-03-16T12:26:53.513Z,100852.94
2023-03-16T12:30:24.700Z,100848.31
2023-03-16T12:33:58.215Z,100845.41
2023-03-16T12:37:22.004Z,100846.66
2023-03-16T12:40:46.429Z,100849.13
2023-03-16T12:44:10.026Z,100854.16
2023-03-16T12:47:19.860Z,100849.47
2023-03-16T12:50:22.802Z,100832.09
2023-03-16T12:53:43.680Z,100825.59
2023-03-16T12:56:46.984Z,100821.34
2023-03-16T12:59:50.862Z,100816.41
2023-03-16T13:03:01.180Z,100813.72
2023-03-16T13:06:03.616Z,100813.94
2023-03-16T13:09:08.873Z,100811.75
2023-03-16T13:12:27.553Z,100809.41
2023-03-16T13:15:30.028Z,100804.16
2023-03-16T13:18:44.828Z,100792.91
2023-03-16T13:21:47.605Z,100784.94
2023-03-16T13:25:11.250Z,100785.53
2023-03-16T13:28:16.279Z,100782.69
2023-03-16T13:31:41.200Z,100778.91
2023-03-16T13:34:56.728Z,100777.38
2023-03-16T13:38:05.900Z,100773.94
2023-03-16T13:41:15.085Z,100767.13
2023-03-16T13:44:18.934Z,100772.72
2023-03-16T13:47:21.131Z,100767.78
2023-03-16T13:50:23.603Z,100760.94
2023-03-16T13:53:31.571Z,100752.47
2023-03-16T13:56:33.997Z,100749.88
2023-03-16T13:59:36.684Z,100745.91
2023-03-16T14:02:46.131Z,100744.00
2023-03-16T14:05:48.534Z,100732.91
2023-03-16T14:08:54.038Z,100737.78
2023-03-16T14:11:58.841Z,100726.31
2023-03-16T14:15:00.792Z,100729.88
2023-03-16T14:18:18.886Z,100715.19
2023-03-16T14:21:28.895Z,100713.34
2023-03-16T14:24:35.377Z,100713.31
2023-03-16T14:27:40.568Z,100717.06
2023-03-16T14:30:53.728Z,100714.19
2023-03-16T14:34:01.188Z,100699.97
2023-03-16T14:37:10.734Z,100696.00
2023-03-16T14:40:24.381Z,100689.31
2023-03-16T14:43:38.333Z,100682.59
2023-03-16T14:46:41.308Z,100675.50
2023-03-16T14:49:43.543Z,100675.50
2023-03-16T14:52:46.383Z,100671.34
2023-03-16T14:55:47.993Z,100680.09
2023-03-16T14:58:49.651Z,100681.94
2023-03-16T15:01:54.693Z,100662.59
2023-03-16T15:04:58.528Z,100644.13
2023-03-16T15:08:00.949Z,100642.78
2023-03-16T15:11:06.246Z,100636.59
2023-03-16T15:14:38.186Z,100646.38
2023-03-16T15:17:39.857Z,100651.84
2023-03-16T15:20:45.434Z,100638.94
2023-03-16T15:23:47.809Z,100642.16
2023-03-16T15:26:49.693Z,100629.28
2023-03-16T15:29:51.350Z,100612.97
2023-03-16T15:32:53.321Z,100609.69
2023-03-16T15:36:07.140Z,100617.31
2023-03-16T15:39:22.470Z,100619.16
2023-03-16T15:42:26.121Z,100601.31
2023-03-16T15:45:28.728Z,100605.53
2023-03-16T15:48:30.735Z,100605.34
2023-03-16T15:51:32.941Z,100608.00
2023-03-16T15:54:35.446Z,100607.56
2023-03-16T15:57:37.227Z,100602.19
2023-03-16T16:00:41.142Z,100594.56
2023-03-16T16:03:43.796Z,100570.88
2023-03-16T16:06:47.727Z,100568.19
2023-03-16T16:09:50.041Z,100572.81
2023-03-16T16:12:54.594Z,100562.91
2023-03-16T16:16:02.788Z,100569.25
2023-03-16T16:19:05.128Z,100570.78
2023-03-16T16:22:13.093Z,100565.44
2023-03-16T16:25:23.699Z,100571.00
2023-03-16T16:28:30.803Z,100566.34
2023-03-16T16:31:36.574Z,100564.44
2023-03-16T16:34:39.371Z,100555.84
2023-03-16T16:37:41.330Z,100558.06
2023-03-16T16:40:46.145Z,100545.97
2023-03-16T16:43:48.310Z,100545.63
2023-03-16T16:46:52.131Z,100551.13
2023-03-16T16:49:54.085Z,100551.00
2023-03-16T16:52:57.327Z,100546.00
2023-03-16T16:55:58.930Z,100550.78
2023-03-16T16:59:31.453Z,100539.78
2023-03-16T17:02:44.286Z,100535.94
2023-03-16T17:05:46.305Z,100532.00
2023-03-16T17:08:50.119Z,100533.72
2023-03-16T17:11:53.064Z,100519.56
2023-03-16T17:14:54.730Z,100518.72
2023-03-16T17:18:04.090Z,100518.81
2023-03-16T17:21:06.555Z,100510.19
2023-03-16T17:24:08.431Z,100511.59
2023-03-16T17:27:14.193Z,100511.78
2023-03-16T17:30:23.558Z,100509.03
2023-03-16T17:33:27.698Z,100506.03
2023-03-16T17:36:30.023Z,100513.66
2023-03-16T17:39:34.028Z,100515.41
2023-03-16T17:42:36.155Z,100509.47
2023-03-16T17:45:38.055Z,100513.78
2023-03-16T17:48:40.375Z,100506.28
2023-03-16T17:51:43.430Z,100501.03
2023-03-16T17:54:47.676Z,100500.97
2023-03-16T17:57:52.418Z,100506.28
2023-03-16T18:00:55.366Z,100503.69
2023-03-16T18:03:58.110Z,100499.13
2023-03-16T18:06:59.700Z,100508.84
2023-03-16T18:10:01.718Z,100505.03
2023-03-16T18:13:08.515Z,100501.91
2023-03-16T18:16:16.125Z,100513.81
2023-03-16T18:19:25.179Z,100506.28
2023-03-16T18:22:33.526Z,100501.00
2023-03-16T18:25:39.539Z,100502.63
2023-03-16T18:28:42.148Z,100504.63
2023-03-16T18:31:47.642Z,100507.53
2023-03-16T18:34:50.082Z,100504.06
2023-03-16T18:37:54.737Z,100494.31
2023-03-16T18:41:13.307Z,100501.66
2023-03-16T18:44:21.629Z,100486.16
2023-03-16T18:47:31.341Z,100485.47
2023-03-16T18:50:33.291Z,100483.91
2023-03-16T18:53:35.054Z,100481.94
2023-03-16T18:56:37.108Z,100479.69
2023-03-16T18:59:38.781Z,100474.56
2023-03-16T19:02:42.728Z,100471.66
2023-03-16T19:05:44.690Z,100476.72
2023-03-16T19:08:46.314Z,100474.03
2023-03-16T19:11:50.409Z,100475.22
2023-03-16T19:14:52.381Z,100469.41
2023-03-16T19:17:54.882Z,100476.53
2023-03-16T19:20:57.047Z,100470.72
2023-03-16T19:24:03.349Z,100467.00
2023-03-16T19:27:32.440Z,100467.81
2023-03-16T19:30:36.222Z,100464.97
2023-03-16T19:33:38.882Z,100463.22
2023-03-16T19:36:40.604Z,100462.81
2023-03-16T19:39:44.202Z,100457.59
2023-03-16T19:42:46.990Z,100455.88
2023-03-16T19:45:51.504Z,100454.38
2023-03-16T19:48:55.113Z,100450.88
2023-03-16T19:51:57.555Z,100450.31
2023-03-16T19:55:00.274Z,100445.94
2023-03-16T19:58:07.543Z,100448.50
2023-03-16T20:01:17.573Z,100443.78
2023-03-16T20:04:23.238Z,100438.44
2023-03-16T20:07:25.850Z,100433.81
2023-03-16T20:10:29.395Z,100427.44
2023-03-16T20:13:31.635Z,100418.69
2023-03-16T20:16:36.146Z,100412.97
2023-03-16T20:19:38.013Z,100408.75
2023-03-16T20:22:39.680Z,100405.09
2023-03-16T20:25:42.882Z,100403.50
2023-03-16T20:28:46.483Z,100403.84
2023-03-16T20:31:48.368Z,100389.50
2023-03-16T20:34:51.438Z,100388.13
2023-03-16T20:37:53.451Z,100390.19
2023-03-16T20:40:55.962Z,100374.00
2023-03-16T20:44:00.010Z,100380.75
2023-03-16T20:47:01.822Z,100379.13
2023-03-16T20:50:04.614Z,100377.31
2023-03-16T20:53:06.605Z,100375.81
2023-03-16T20:56:36.732Z,100365.75
2023-03-16T20:59:39.349Z,100363.00
2023-03-16T21:02:41.382Z,100371.38
2023-03-16T21:05:43.693Z,100359.66
2023-03-16T21:08:45.865Z,100366.00
2023-03-16T21:11:48.379Z,100356.31
2023-03-16T21:14:51.539Z,100355.94
2023-03-16T21:17:59.705Z,100344.66
2023-03-16T21:21:01.930Z,100350.13
2023-03-16T21:24:03.777Z,100349.97
2023-03-16T21:27:06.340Z,100341.38
2023-03-16T21:30:36.176Z,100331.06
2023-03-16T21:33:40.567Z,100320.63
2023-03-16T21:36:44.372Z,100323.94
2023-03-16T21:39:48.067Z,100313.94
2023-03-16T21:42:50.098Z,100308.63
2023-03-16T21:45:52.683Z,100311.81
2023-03-16T21:48:55.819Z,100295.56
2023-03-16T21:51:57.695Z,100301.38
2023-03-16T21:55:00.623Z,100288.56
2023-03-16T21:58:02.846Z,100292.56
2023-03-16T22:01:04.589Z,100302.75
2023-03-16T22:04:11.692Z,100303.91
2023-03-16T22:07:13.803Z,100298.41
2023-03-16T22:10:16.065Z,100284.00
2023-03-16T22:13:24.444Z,100283.63
2023-03-16T22:16:29.990Z,100285.59
2023-03-16T22:19:32.776Z,100286.53
2023-03-16T22:22:34.626Z,100281.06
2023-03-16T22:25:36.267Z,100278.59
2023-03-16T22:28:38.349Z,100274.03
2023-03-16T22:31:41.320Z,100277.31
2023-03-16T22:34:46.817Z,100271.31
2023-03-16T22:37:48.521Z,100268.81
2023-03-16T22:40:51.544Z,100273.63
2023-03-16T22:43:54.273Z,100270.75
2023-03-16T22:46:56.175Z,100258.94
2023-03-16T22:49:58.394Z,100253.13
2023-03-16T22:53:04.333Z,100237.31
2023-03-16T22:56:07.930Z,100241.69
2023-03-16T22:59:14.958Z,100229.88
2023-03-16T23:02:20.620Z,100242.88
2023-03-16T23:05:25.848Z,100242.88
2023-03-16T23:08:27.915Z,100242.50
2023-03-16T23:11:32.285Z,100233.78
2023-03-16T23:14:37.108Z,100229.16
2023-03-16T23:17:38.870Z,100216.91
2023-03-16T23:20:40.496Z,100217.28
2023-03-16T23:23:57.153Z,100225.97
2023-03-16T23:27:06.787Z,100216.28
2023-03-16T23:30:16.700Z,100216.34
2023-03-16T23:33:18.368Z,100216.59
2023-03-16T23:36:22.673Z,100218.28
2023-03-16T23:39:24.251Z,100222.09
2023-03-16T23:42:25.904Z,100221.84
2023-03-16T23:45:48.198Z,100218.97
2023-03-16T23:48:51.892Z,100227.28
2023-03-16T23:51:57.398Z,100214.66
2023-03-16T23:55:00.618Z,100211.47
2023-03-16T23:58:02.722Z,100206.78
